createdAt,value
2022-09-27T00:01:40.831Z,14.79
2022-09-27T00:04:12.293Z,14.76
2022-09-27T00:06:41.146Z,14.72
2022-09-27T00:09:10.031Z,14.66
2022-09-27T00:11:41.257Z,14.55
2022-09-27T00:14:13.143Z,14.42
2022-09-27T00:16:43.290Z,14.32
2022-09-27T00:19:14.957Z,14.20
2022-09-27T00:21:44.624Z,14.09
2022-09-27T00:24:14.385Z,13.99
2022-09-27T00:26:43.362Z,13.90
2022-09-27T00:29:11.520Z,13.84
2022-09-27T00:31:40.467Z,13.81
2022-09-27T00:34:16.974Z,13.80
2022-09-27T00:36:45.381Z,13.80
2022-09-27T00:39:14.786Z,13.83
2022-09-27T00:41:43.939Z,13.85
2022-09-27T00:44:27.284Z,13.88
2022-09-27T00:47:06.707Z,13.93
2022-09-27T00:50:01.729Z,13.98
2022-09-27T00:52:39.514Z,14.05
2022-09-27T00:55:13.401Z,14.11
2022-09-27T00:57:42.868Z,14.14
2022-09-27T01:00:13.574Z,14.14
2022-09-27T01:02:49.328Z,14.15
2022-09-27T01:05:22.237Z,14.14
2022-09-27T01:07:50.886Z,14.15
2022-09-27T01:10:20.145Z,14.15
2022-09-27T01:13:02.812Z,14.15
2022-09-27T01:15:46.319Z,14.17
2022-09-27T01:18:47.210Z,14.21
2022-09-27T01:21:38.507Z,14.22
2022-09-27T01:24:15.864Z,14.22
2022-09-27T01:26:56.053Z,14.22
2022-09-27T01:30:02.089Z,14.23
2022-09-27T01:32:51.914Z,14.23
2022-09-27T01:35:26.139Z,14.23
2022-09-27T01:37:57.806Z,14.23
2022-09-27T01:41:02.794Z,14.14
2022-09-27T01:44:02.196Z,14.23
2022-09-27T01:46:45.949Z,14.24
2022-09-27T01:49:32.730Z,14.24
2022-09-27T01:52:04.300Z,14.24
2022-09-27T01:54:54.979Z,14.24
2022-09-27T01:57:57.947Z,14.25
2022-09-27T02:00:26.606Z,14.25
2022-09-27T02:03:00.692Z,14.25
2022-09-27T02:05:46.421Z,14.23
2022-09-27T02:09:02.428Z,14.22
2022-09-27T02:12:00.383Z,14.22
2022-09-27T02:14:49.762Z,14.21
2022-09-27T02:17:38.431Z,14.19
2022-09-27T02:20:26.362Z,14.17
2022-09-27T02:23:14.079Z,14.17
2022-09-27T02:25:58.109Z,14.17
2022-09-27T02:28:38.342Z,14.19
2022-09-27T02:31:07.059Z,14.22
2022-09-27T02:34:18.368Z,14.22
2022-09-27T02:36:48.643Z,14.22
2022-09-27T02:39:18.225Z,14.20
2022-09-27T02:41:46.654Z,14.19
2022-09-27T02:44:17.702Z,14.19
2022-09-27T02:47:09.158Z,14.19
2022-09-27T02:49:40.429Z,14.18
2022-09-27T02:52:18.151Z,14.15
2022-09-27T02:55:12.277Z,14.13
2022-09-27T02:58:23.015Z,14.09
2022-09-27T03:01:20.957Z,14.05
2022-09-27T03:04:39.923Z,14.01
2022-09-27T03:07:08.433Z,13.98
2022-09-27T03:09:49.495Z,13.96
2022-09-27T03:12:28.739Z,13.97
2022-09-27T03:15:00.333Z,13.89
2022-09-27T03:17:57.898Z,13.89
2022-09-27T03:20:44.678Z,13.89
2022-09-27T03:23:14.077Z,13.89
2022-09-27T03:25:43.137Z,13.89
2022-09-27T03:28:13.921Z,13.87
2022-09-27T03:30:45.403Z,13.85
2022-09-27T03:33:15.357Z,13.83
2022-09-27T03:35:49.102Z,13.81
2022-09-27T03:38:17.256Z,13.80
2022-09-27T03:40:45.872Z,13.78
2022-09-27T03:43:14.719Z,13.77
2022-09-27T03:45:45.581Z,13.77
2022-09-27T03:48:14.517Z,13.77
2022-09-27T03:50:43.164Z,13.77
2022-09-27T03:53:11.672Z,13.77
2022-09-27T03:55:40.135Z,13.76
2022-09-27T03:58:08.690Z,13.75
2022-09-27T04:00:37.727Z,13.76
2022-09-27T04:03:05.878Z,13.76
2022-09-27T04:05:54.006Z,13.76
2022-09-27T04:08:28.773Z,13.75
2022-09-27T04:10:57.400Z,13.74
2022-09-27T04:13:25.758Z,13.73
2022-09-27T04:15:55.985Z,13.74
2022-09-27T04:18:50.512Z,13.73
2022-09-27T04:21:39.280Z,13.72
2022-09-27T04:24:08.201Z,13.72
2022-09-27T04:26:37.328Z,13.71
2022-09-27T04:29:12.451Z,13.67
2022-09-27T04:31:44.655Z,13.65
2022-09-27T04:34:12.790Z,13.62
2022-09-27T04:36:41.002Z,13.59
2022-09-27T04:39:18.077Z,13.57
2022-09-27T04:41:47.071Z,13.57
2022-09-27T04:44:15.163Z,13.55
2022-09-27T04:46:46.187Z,13.56
2022-09-27T04:49:17.661Z,13.56
2022-09-27T04:51:46.829Z,13.60
2022-09-27T04:54:15.050Z,13.59
2022-09-27T04:56:52.548Z,13.66
2022-09-27T04:59:21.821Z,13.68
2022-09-27T05:01:50.778Z,13.69
2022-09-27T05:04:18.911Z,13.70
2022-09-27T05:06:54.895Z,13.71
2022-09-27T05:09:29.968Z,13.73
2022-09-27T05:11:58.427Z,13.75
2022-09-27T05:14:40.450Z,13.74
2022-09-27T05:17:13.887Z,13.69
2022-09-27T05:19:45.145Z,13.66
2022-09-27T05:22:40.728Z,13.63
2022-09-27T05:25:09.878Z,13.61
2022-09-27T05:27:38.412Z,13.61
2022-09-27T05:30:08.424Z,13.61
2022-09-27T05:32:53.383Z,13.61
2022-09-27T05:35:27.650Z,13.60
2022-09-27T05:38:00.400Z,13.61
2022-09-27T05:40:46.881Z,13.62
2022-09-27T05:43:16.246Z,13.65
2022-09-27T05:45:45.334Z,13.70
2022-09-27T05:48:14.790Z,13.76
2022-09-27T05:50:53.558Z,13.81
2022-09-27T05:53:21.684Z,13.84
2022-09-27T05:55:49.883Z,13.89
2022-09-27T05:58:19.781Z,13.99
2022-09-27T06:00:56.727Z,14.07
2022-09-27T06:03:51.529Z,14.10
2022-09-27T06:06:45.966Z,14.13
2022-09-27T06:09:16.784Z,14.14
2022-09-27T06:11:46.304Z,14.16
2022-09-27T06:14:17.235Z,14.19
2022-09-27T06:17:02.442Z,14.26
2022-09-27T06:19:34.268Z,14.34
2022-09-27T06:22:02.467Z,14.43
2022-09-27T06:24:39.531Z,14.52
2022-09-27T06:27:14.794Z,14.53
2022-09-27T06:30:07.333Z,14.58
2022-09-27T06:33:09.695Z,14.65
2022-09-27T06:35:45.591Z,14.72
2022-09-27T06:38:17.215Z,14.78
2022-09-27T06:40:53.323Z,14.83
2022-09-27T06:43:53.896Z,14.88
2022-09-27T06:46:42.863Z,14.96
2022-09-27T06:49:10.986Z,15.06
2022-09-27T06:51:40.819Z,15.15
2022-09-27T06:54:09.139Z,15.19
2022-09-27T06:56:37.808Z,15.20
2022-09-27T06:59:25.116Z,15.25
2022-09-27T07:02:14.207Z,15.37
2022-09-27T07:05:15.266Z,15.48
2022-09-27T07:07:58.031Z,15.54
2022-09-27T07:10:29.110Z,15.60
2022-09-27T07:12:58.486Z,15.72
2022-09-27T07:15:27.564Z,15.77
2022-09-27T07:18:00.830Z,15.82
2022-09-27T07:20:31.407Z,15.92
2022-09-27T07:22:59.967Z,16.05
2022-09-27T07:25:28.216Z,16.21
2022-09-27T07:28:02.608Z,16.32
2022-09-27T07:30:31.712Z,16.38
2022-09-27T07:33:03.274Z,16.34
2022-09-27T07:35:32.164Z,16.30
2022-09-27T07:38:01.224Z,16.31
2022-09-27T07:40:30.357Z,16.37
2022-09-27T07:42:59.450Z,16.35
2022-09-27T07:45:28.449Z,16.44
2022-09-27T07:48:16.806Z,16.65
2022-09-27T07:51:01.665Z,16.86
2022-09-27T07:53:43.790Z,17.10
2022-09-27T07:56:47.534Z,17.32
2022-09-27T07:59:19.057Z,17.44
2022-09-27T08:01:47.145Z,17.65
2022-09-27T08:04:15.256Z,17.95
2022-09-27T08:06:43.434Z,18.16
2022-09-27T08:09:12.114Z,18.32
2022-09-27T08:11:42.008Z,18.43
2022-09-27T08:14:11.006Z,18.67
2022-09-27T08:16:42.029Z,18.99
2022-09-27T08:19:29.377Z,19.44
2022-09-27T08:21:59.032Z,19.74
2022-09-27T08:24:36.909Z,19.97
2022-09-27T08:27:28.093Z,19.95
2022-09-27T08:30:00.063Z,20.12
2022-09-27T08:32:28.989Z,20.28
2022-09-27T08:34:57.417Z,20.46
2022-09-27T08:37:26.639Z,20.89
2022-09-27T08:39:54.956Z,21.21
2022-09-27T08:42:37.527Z,21.17
2022-09-27T08:45:41.739Z,21.69
2022-09-27T08:48:10.693Z,22.00
2022-09-27T08:50:45.902Z,22.40
2022-09-27T08:53:26.565Z,22.70
2022-09-27T08:55:58.092Z,22.90
2022-09-27T08:58:36.116Z,23.21
2022-09-27T09:01:16.506Z,23.79
2022-09-27T09:04:04.500Z,24.45
2022-09-27T09:07:17.688Z,24.98
2022-09-27T09:10:00.878Z,26.00
2022-09-27T09:12:47.766Z,26.61
2022-09-27T09:15:30.458Z,27.04
2022-09-27T09:18:16.479Z,27.56
2022-09-27T09:21:51.960Z,28.08
2022-09-27T09:24:52.172Z,28.31
2022-09-27T09:27:47.502Z,28.35
2022-09-27T09:30:26.226Z,28.32
2022-09-27T09:33:08.320Z,28.10
2022-09-27T09:35:40.328Z,28.10
2022-09-27T09:38:21.318Z,28.04
2022-09-27T09:41:01.224Z,27.44
2022-09-27T09:43:44.900Z,26.86
2022-09-27T09:46:35.352Z,27.07
2022-09-27T09:49:27.919Z,27.48
2022-09-27T09:52:11.339Z,27.75
2022-09-27T09:54:48.435Z,28.13
2022-09-27T09:57:29.229Z,28.54
2022-09-27T10:00:03.204Z,28.72
2022-09-27T10:02:39.713Z,28.62
2022-09-27T10:05:18.653Z,28.09
2022-09-27T10:07:50.826Z,27.87
2022-09-27T10:10:20.993Z,28.21
2022-09-27T10:13:23.680Z,28.74
2022-09-27T10:16:07.549Z,28.58
2022-09-27T10:18:38.850Z,27.61
2022-09-27T10:21:15.219Z,26.78
2022-09-27T10:24:11.334Z,26.17
2022-09-27T10:27:02.016Z,25.39
2022-09-27T10:29:37.614Z,24.95
2022-09-27T10:32:24.779Z,25.09
2022-09-27T10:35:35.244Z,25.79
2022-09-27T10:38:17.167Z,25.78
2022-09-27T10:40:45.843Z,25.52
2022-09-27T10:43:29.766Z,25.66
2022-09-27T10:46:05.376Z,25.79
2022-09-27T10:48:39.671Z,25.22
2022-09-27T10:51:30.390Z,24.72
2022-09-27T10:54:01.164Z,24.44
2022-09-27T10:56:35.031Z,24.08
2022-09-27T10:59:05.444Z,23.75
2022-09-27T11:01:46.252Z,23.62
2022-09-27T11:04:37.987Z,24.59
2022-09-27T11:07:16.394Z,25.58
2022-09-27T11:09:55.116Z,26.38
2022-09-27T11:12:25.467Z,26.99
2022-09-27T11:15:10.700Z,27.44
2022-09-27T11:17:55.545Z,27.43
2022-09-27T11:20:53.553Z,26.60
2022-09-27T11:23:47.534Z,26.20
2022-09-27T11:26:33.894Z,25.94
2022-09-27T11:29:12.581Z,25.53
2022-09-27T11:32:16.651Z,24.94
2022-09-27T11:35:13.598Z,24.38
2022-09-27T11:38:48.374Z,23.88
2022-09-27T11:41:37.302Z,23.42
2022-09-27T11:44:18.254Z,23.62
2022-09-27T11:46:58.062Z,24.66
2022-09-27T11:49:32.491Z,25.35
2022-09-27T11:52:31.968Z,25.62
2022-09-27T11:55:19.418Z,25.76
2022-09-27T11:58:09.724Z,25.76
2022-09-27T12:01:26.957Z,25.88
2022-09-27T12:03:55.199Z,26.01
2022-09-27T12:06:55.482Z,26.20
2022-09-27T12:09:30.985Z,26.18
2022-09-27T12:12:18.718Z,25.99
2022-09-27T12:14:56.544Z,26.14
2022-09-27T12:17:29.777Z,25.93
2022-09-27T12:20:03.511Z,26.17
2022-09-27T12:23:39.440Z,26.45
2022-09-27T12:26:41.210Z,26.42
2022-09-27T12:29:21.282Z,26.30
2022-09-27T12:32:18.063Z,26.34
2022-09-27T12:34:59.400Z,26.63
2022-09-27T12:37:34.248Z,26.87
2022-09-27T12:40:16.633Z,27.08
2022-09-27T12:42:59.323Z,27.20
2022-09-27T12:46:00.798Z,27.49
2022-09-27T12:48:53.120Z,27.95
2022-09-27T12:51:22.868Z,28.37
2022-09-27T12:54:06.429Z,28.59
2022-09-27T12:57:00.017Z,28.66
2022-09-27T12:59:56.830Z,28.65
2022-09-27T13:02:39.258Z,28.97
2022-09-27T13:06:02.985Z,29.14
2022-09-27T13:08:54.161Z,28.97
2022-09-27T13:12:13.061Z,28.58
2022-09-27T13:15:01.749Z,28.49
2022-09-27T13:17:42.497Z,28.53
2022-09-27T13:20:42.674Z,28.63
2022-09-27T13:23:29.805Z,28.15
2022-09-27T13:26:04.126Z,27.30
2022-09-27T13:28:48.819Z,26.68
2022-09-27T13:32:06.371Z,26.34
2022-09-27T13:34:56.824Z,27.09
2022-09-27T13:38:01.351Z,27.50
2022-09-27T13:40:41.064Z,27.94
2022-09-27T13:43:27.610Z,28.17
2022-09-27T13:46:10.859Z,28.25
2022-09-27T13:48:45.024Z,28.01
2022-09-27T13:51:31.594Z,27.74
2022-09-27T13:54:27.091Z,27.05
2022-09-27T13:56:56.419Z,26.25
2022-09-27T13:59:52.781Z,26.45
2022-09-27T14:02:59.613Z,26.40
2022-09-27T14:05:45.543Z,25.79
2022-09-27T14:09:06.205Z,25.23
2022-09-27T14:11:42.692Z,24.85
2022-09-27T14:14:19.793Z,24.54
2022-09-27T14:16:52.083Z,24.20
2022-09-27T14:19:25.708Z,24.42
2022-09-27T14:22:29.559Z,24.77
2022-09-27T14:25:00.566Z,24.68
2022-09-27T14:27:38.869Z,24.59
2022-09-27T14:30:19.373Z,24.73
2022-09-27T14:32:55.402Z,24.80
2022-09-27T14:36:07.858Z,24.68
2022-09-27T14:38:38.396Z,24.50
2022-09-27T14:41:11.748Z,24.51
2022-09-27T14:43:44.718Z,24.69
2022-09-27T14:46:30.804Z,25.00
2022-09-27T14:48:59.792Z,25.32
2022-09-27T14:51:31.188Z,25.49
2022-09-27T14:54:01.600Z,25.37
2022-09-27T14:56:37.874Z,25.47
2022-09-27T14:59:23.453Z,25.41
2022-09-27T15:01:52.998Z,25.08
2022-09-27T15:04:24.028Z,24.66
2022-09-27T15:06:52.458Z,24.17
2022-09-27T15:09:21.107Z,23.60
2022-09-27T15:12:00.429Z,23.04
2022-09-27T15:14:33.211Z,22.52
2022-09-27T15:17:06.114Z,22.08
2022-09-27T15:19:34.845Z,21.79
2022-09-27T15:22:22.622Z,21.51
2022-09-27T15:24:51.259Z,21.20
2022-09-27T15:27:25.325Z,21.05
2022-09-27T15:29:58.702Z,20.88
2022-09-27T15:32:29.177Z,20.68
2022-09-27T15:35:06.034Z,20.46
2022-09-27T15:37:39.142Z,20.23
2022-09-27T15:40:45.742Z,20.04
2022-09-27T15:43:31.171Z,19.80
2022-09-27T15:46:23.299Z,19.61
2022-09-27T15:49:35.845Z,19.40
2022-09-27T15:52:05.387Z,19.22
2022-09-27T15:54:35.929Z,19.09
2022-09-27T15:57:06.200Z,18.95
2022-09-27T15:59:36.028Z,18.84
2022-09-27T16:02:14.499Z,18.73
2022-09-27T16:04:42.567Z,18.61
2022-09-27T16:07:11.838Z,18.47
2022-09-27T16:09:40.324Z,18.35
2022-09-27T16:12:09.293Z,18.29
2022-09-27T16:14:37.325Z,18.23
2022-09-27T16:17:05.361Z,18.16
2022-09-27T16:19:33.471Z,18.10
2022-09-27T16:22:03.646Z,18.04
2022-09-27T16:24:32.506Z,18.02
2022-09-27T16:27:00.556Z,17.98
2022-09-27T16:29:28.775Z,17.95
2022-09-27T16:31:57.272Z,17.93
2022-09-27T16:34:25.373Z,17.91
2022-09-27T16:36:53.658Z,17.90
2022-09-27T16:39:21.839Z,17.88
2022-09-27T16:41:52.327Z,17.86
2022-09-27T16:44:20.354Z,17.83
2022-09-27T16:46:49.099Z,17.80
2022-09-27T16:49:35.820Z,17.78
2022-09-27T16:52:03.972Z,17.75
2022-09-27T16:54:32.120Z,17.74
2022-09-27T16:57:00.225Z,17.75
2022-09-27T16:59:28.441Z,17.74
2022-09-27T17:01:58.432Z,17.73
2022-09-27T17:04:28.249Z,17.69
2022-09-27T17:06:57.133Z,17.63
2022-09-27T17:09:25.783Z,17.60
2022-09-27T17:11:55.597Z,17.59
2022-09-27T17:14:24.025Z,17.58
2022-09-27T17:16:52.653Z,17.58
2022-09-27T17:19:21.195Z,17.57
2022-09-27T17:21:49.264Z,17.53
2022-09-27T17:24:18.219Z,17.51
2022-09-27T17:26:46.670Z,17.50
2022-09-27T17:29:15.400Z,17.48
2022-09-27T17:31:44.538Z,17.46
2022-09-27T17:34:14.549Z,17.43
2022-09-27T17:36:48.451Z,17.38
2022-09-27T17:39:18.874Z,17.33
2022-09-27T17:41:49.354Z,17.29
2022-09-27T17:44:18.662Z,17.28
2022-09-27T17:46:47.823Z,17.28
2022-09-27T17:49:34.515Z,17.28
2022-09-27T17:52:02.612Z,17.28
2022-09-27T17:54:30.697Z,17.27
2022-09-27T17:56:58.767Z,17.25
2022-09-27T17:59:27.079Z,17.25
2022-09-27T18:01:55.615Z,17.25
2022-09-27T18:04:23.875Z,17.25
2022-09-27T18:06:51.943Z,17.25
2022-09-27T18:09:20.405Z,17.24
2022-09-27T18:11:48.493Z,17.22
2022-09-27T18:14:16.929Z,17.20
2022-09-27T18:16:45.278Z,17.18
2022-09-27T18:19:16.265Z,17.17
2022-09-27T18:21:44.513Z,17.15
2022-09-27T18:24:14.337Z,17.13
2022-09-27T18:26:43.911Z,17.11
2022-09-27T18:29:14.717Z,17.11
2022-09-27T18:31:48.115Z,17.10
2022-09-27T18:34:18.420Z,17.10
2022-09-27T18:36:47.231Z,17.10
2022-09-27T18:39:19.454Z,17.08
2022-09-27T18:41:49.421Z,17.05
2022-09-27T18:44:18.607Z,17.03
2022-09-27T18:46:47.681Z,16.99
2022-09-27T18:49:16.939Z,16.95
2022-09-27T18:51:47.204Z,16.93
2022-09-27T18:54:21.050Z,16.90
2022-09-27T18:56:52.371Z,16.83
2022-09-27T18:59:21.567Z,16.79
2022-09-27T19:01:49.916Z,16.73
2022-09-27T19:04:26.962Z,16.67
2022-09-27T19:06:56.809Z,16.62
2022-09-27T19:09:34.449Z,16.59
2022-09-27T19:12:03.290Z,16.55
2022-09-27T19:14:31.450Z,16.53
2022-09-27T19:16:59.590Z,16.52
2022-09-27T19:19:28.378Z,16.52
2022-09-27T19:21:59.066Z,16.49
2022-09-27T19:24:28.255Z,16.46
2022-09-27T19:26:57.432Z,16.43
2022-09-27T19:29:25.719Z,16.42
2022-09-27T19:31:53.833Z,16.40
2022-09-27T19:34:21.947Z,16.39
2022-09-27T19:36:50.008Z,16.37
2022-09-27T19:39:18.406Z,16.34
2022-09-27T19:41:46.523Z,16.31
2022-09-27T19:44:14.636Z,16.30
2022-09-27T19:46:45.503Z,16.27
2022-09-27T19:49:13.649Z,16.23
2022-09-27T19:51:41.708Z,16.21
2022-09-27T19:54:11.518Z,16.19
2022-09-27T19:56:39.601Z,16.17
2022-09-27T19:59:07.677Z,16.15
2022-09-27T20:01:35.964Z,16.12
2022-09-27T20:04:04.152Z,16.10
2022-09-27T20:06:32.857Z,16.05
2022-09-27T20:09:03.191Z,16.06
2022-09-27T20:11:32.015Z,16.05
2022-09-27T20:14:00.217Z,16.02
2022-09-27T20:16:28.468Z,15.98
2022-09-27T20:18:58.882Z,15.94
2022-09-27T20:21:30.051Z,15.92
2022-09-27T20:23:59.788Z,15.90
2022-09-27T20:26:29.923Z,15.88
2022-09-27T20:29:00.500Z,15.86
2022-09-27T20:31:33.132Z,15.85
2022-09-27T20:34:01.697Z,15.83
2022-09-27T20:36:32.584Z,15.81
2022-09-27T20:39:03.823Z,15.77
2022-09-27T20:41:35.380Z,15.76
2022-09-27T20:44:06.841Z,15.74
2022-09-27T20:46:36.336Z,15.73
2022-09-27T20:49:07.683Z,15.72
2022-09-27T20:51:39.252Z,15.70
2022-09-27T20:54:09.479Z,15.68
2022-09-27T20:56:46.303Z,15.65
2022-09-27T20:59:23.613Z,15.63
2022-09-27T21:01:53.555Z,15.63
2022-09-27T21:04:23.609Z,15.65
2022-09-27T21:06:52.795Z,15.67
2022-09-27T21:09:21.066Z,15.66
2022-09-27T21:11:52.109Z,15.65
2022-09-27T21:14:20.480Z,15.64
2022-09-27T21:16:49.135Z,15.64
2022-09-27T21:19:17.530Z,15.63
2022-09-27T21:21:45.672Z,15.64
2022-09-27T21:24:13.811Z,15.64
2022-09-27T21:26:41.959Z,15.64
2022-09-27T21:29:11.875Z,15.62
2022-09-27T21:31:40.237Z,15.60
2022-09-27T21:34:08.434Z,15.57
2022-09-27T21:36:38.655Z,15.57
2022-09-27T21:39:08.880Z,15.55
2022-09-27T21:41:39.207Z,15.55
2022-09-27T21:44:08.710Z,15.54
2022-09-27T21:46:40.897Z,15.52
2022-09-27T21:49:09.254Z,15.50
2022-09-27T21:51:39.840Z,15.49
2022-09-27T21:54:12.328Z,15.49
2022-09-27T21:56:41.710Z,15.46
2022-09-27T21:59:13.246Z,15.44
2022-09-27T22:01:44.203Z,15.40
2022-09-27T22:04:13.163Z,15.37
2022-09-27T22:06:41.858Z,15.35
2022-09-27T22:09:15.232Z,15.33
2022-09-27T22:11:47.810Z,15.31
2022-09-27T22:14:20.022Z,15.29
2022-09-27T22:16:48.147Z,15.27
2022-09-27T22:19:16.859Z,15.25
2022-09-27T22:21:45.893Z,15.23
2022-09-27T22:24:16.833Z,15.23
2022-09-27T22:26:50.266Z,15.22
2022-09-27T22:29:18.863Z,15.22
2022-09-27T22:31:47.817Z,15.21
2022-09-27T22:34:20.788Z,15.22
2022-09-27T22:36:48.874Z,15.22
2022-09-27T22:39:16.971Z,15.23
2022-09-27T22:41:45.376Z,15.25
2022-09-27T22:44:13.437Z,15.26
2022-09-27T22:46:41.910Z,15.28
2022-09-27T22:49:10.130Z,15.28
2022-09-27T22:51:38.303Z,15.28
2022-09-27T22:54:06.526Z,15.27
2022-09-27T22:56:34.618Z,15.28
2022-09-27T22:59:02.750Z,15.28
2022-09-27T23:01:31.693Z,15.30
2022-09-27T23:03:59.936Z,15.31
2022-09-27T23:06:28.182Z,15.31
2022-09-27T23:08:58.304Z,15.31
2022-09-27T23:11:26.752Z,15.31
2022-09-27T23:13:54.919Z,15.28
2022-09-27T23:16:26.389Z,15.26
2022-09-27T23:18:56.878Z,15.23
2022-09-27T23:21:27.270Z,15.20
2022-09-27T23:23:57.462Z,15.16
2022-09-27T23:26:27.669Z,15.11
2022-09-27T23:28:58.113Z,15.08
2022-09-27T23:31:31.112Z,15.04
2022-09-27T23:34:03.299Z,15.01
2022-09-27T23:36:31.565Z,14.99
2022-09-27T23:39:01.578Z,14.96
2022-09-27T23:41:29.782Z,14.92
2022-09-27T23:43:58.575Z,14.89
2022-09-27T23:46:26.720Z,14.86
2022-09-27T23:48:54.938Z,14.86
2022-09-27T23:51:23.019Z,14.85
2022-09-27T23:53:51.164Z,14.85
2022-09-27T23:56:19.188Z,14.84
2022-09-27T23:58:47.441Z,14.83
